Time;durP1;ratioP1;P1;durP2;ratioP2;P2;SDS_P1;SDS_P2;PMS_P1;PMS_P2;Temp;Humidity;BMP_temperature;BMP_pressure;BME280_temperature;BME280_humidity;BME280_pressure;Samples;Min_cycle;Max_cycle;Signal;HPM_P1;HPM_P2
2022/09/10 00:01:17;;;;;;;7.67;4.43;;;10.30;99.90;;;;;;5073043;28;20287;-72
2022/09/10 00:03:44;;;;;;;11.30;4.70;;;10.20;99.90;;;;;;5074195;28;20300;-71
2022/09/10 00:06:12;;;;;;;11.13;4.63;;;10.20;99.90;;;;;;5073341;28;20312;-71
2022/09/10 00:08:39;;;;;;;10.57;4.83;;;10.10;99.90;;;;;;5074030;28;20242;-70
2022/09/10 00:11:09;;;;;;;9.07;4.93;;;10.10;99.90;;;;;;5073688;28;20303;-71
2022/09/10 00:13:39;;;;;;;7.37;4.43;;;10.00;99.90;;;;;;5074110;28;20287;-70
2022/09/10 00:16:08;;;;;;;9.00;5.00;;;10.00;99.90;;;;;;5072570;28;20268;-71
2022/09/10 00:18:35;;;;;;;7.07;4.27;;;10.00;99.90;;;;;;5074160;28;20563;-71
2022/09/10 00:21:07;;;;;;;8.33;4.67;;;9.90;99.90;;;;;;5083894;28;20311;-73
2022/09/10 00:23:34;;;;;;;8.10;4.57;;;9.90;99.90;;;;;;5084688;28;20201;-73
2022/09/10 00:26:12;;;;;;;8.40;4.70;;;9.90;99.90;;;;;;5073486;28;20209;-72
2022/09/10 00:28:41;;;;;;;6.93;4.63;;;9.90;99.90;;;;;;5074031;28;20311;-71
2022/09/10 00:31:08;;;;;;;8.23;4.40;;;9.80;99.90;;;;;;5072691;28;20303;-72
2022/09/10 00:33:35;;;;;;;7.73;4.20;;;9.80;99.90;;;;;;5074408;28;20332;-71
2022/09/10 00:36:04;;;;;;;7.97;4.20;;;9.80;99.90;;;;;;5073909;28;20573;-72
2022/09/10 00:38:32;;;;;;;8.80;5.07;;;9.80;99.90;;;;;;5073762;28;20722;-72
2022/09/10 00:41:04;;;;;;;8.90;4.80;;;9.80;99.90;;;;;;5073459;28;20283;-71
2022/09/10 00:46:31;;;;;;;9.03;4.87;;;9.80;99.90;;;;;;5150886;27;20574;-73
2022/09/10 00:49:00;;;;;;;7.63;4.43;;;9.80;99.90;;;;;;5132705;27;20197;-74
2022/09/10 00:51:30;;;;;;;8.47;4.90;;;9.80;99.90;;;;;;5130317;28;20347;-72
2022/09/10 00:53:58;;;;;;;7.13;5.00;;;9.80;99.90;;;;;;5144176;27;20205;-73
2022/09/10 00:56:25;;;;;;;7.43;4.90;;;9.80;99.90;;;;;;5138851;27;20301;-71
2022/09/10 00:58:53;;;;;;;8.73;5.30;;;9.80;99.90;;;;;;5129809;28;20289;-74
2022/09/10 01:01:19;;;;;;;8.83;4.80;;;9.80;99.90;;;;;;5130214;28;20234;-73
2022/09/10 01:03:49;;;;;;;7.77;4.67;;;9.80;99.90;;;;;;5129560;28;20202;-73
2022/09/10 01:06:17;;;;;;;8.00;4.67;;;9.80;99.90;;;;;;5130041;27;20218;-74
2022/09/10 01:08:44;;;;;;;8.03;4.93;;;9.80;99.90;;;;;;5130363;28;20206;-72
2022/09/10 01:11:26;;;;;;;8.23;5.00;;;9.70;99.90;;;;;;5130148;27;20662;-74
2022/09/10 01:14:16;;;;;;;6.80;4.80;;;9.80;99.90;;;;;;5136419;27;20195;-75
2022/09/10 01:16:50;;;;;;;8.23;4.77;;;9.80;99.90;;;;;;5130496;28;20565;-73
2022/09/10 01:19:32;;;;;;;6.60;4.80;;;9.80;99.90;;;;;;5129884;28;20287;-73
2022/09/10 01:22:11;;;;;;;8.93;4.83;;;9.80;99.90;;;;;;5129833;28;20248;-74
2022/09/10 01:24:53;;;;;;;7.37;4.90;;;9.80;99.90;;;;;;5138271;27;20209;-74
2022/09/10 01:27:38;;;;;;;10.67;4.97;;;9.80;99.90;;;;;;5149896;27;20565;-73
2022/09/10 01:30:13;;;;;;;9.53;5.50;;;9.80;99.90;;;;;;5129568;28;20639;-74
2022/09/10 01:32:50;;;;;;;7.73;5.40;;;9.80;99.90;;;;;;5129295;27;20198;-73
2022/09/10 01:35:21;;;;;;;7.13;5.07;;;9.80;99.90;;;;;;5149179;27;20280;-72
2022/09/10 01:37:53;;;;;;;8.37;4.77;;;9.80;99.90;;;;;;5149495;27;20288;-72
2022/09/10 01:40:27;;;;;;;7.40;5.10;;;9.80;99.90;;;;;;5149953;27;20251;-72
2022/09/10 01:43:00;;;;;;;7.03;5.40;;;9.80;99.90;;;;;;5140123;27;20218;-73
2022/09/10 01:45:27;;;;;;;11.13;5.30;;;9.80;99.90;;;;;;5148613;27;20241;-72
2022/09/10 01:48:29;;;;;;;6.33;5.07;;;9.80;99.90;;;;;;5149327;27;20213;-73
2022/09/10 01:51:07;;;;;;;7.23;4.50;;;9.70;99.90;;;;;;5104638;27;20297;-72
2022/09/10 01:53:56;;;;;;;7.93;4.83;;;9.70;99.90;;;;;;5128698;28;20235;-72
2022/09/10 01:56:34;;;;;;;7.50;4.60;;;9.70;99.90;;;;;;5123088;28;20321;-72
2022/09/10 01:59:10;;;;;;;7.03;4.50;;;9.70;99.90;;;;;;5115021;28;20199;-73
2022/09/10 02:01:44;;;;;;;7.87;4.40;;;9.70;99.90;;;;;;5129000;27;20195;-72
2022/09/10 02:04:13;;;;;;;5.87;4.47;;;9.70;99.90;;;;;;5115269;28;20191;-72
2022/09/10 02:06:44;;;;;;;6.53;3.87;;;9.70;99.90;;;;;;5114485;28;20230;-72
2022/09/10 02:09:13;;;;;;;7.87;4.67;;;9.70;99.90;;;;;;5114897;28;20294;-73
2022/09/10 02:11:48;;;;;;;6.73;5.00;;;9.70;99.90;;;;;;5114671;27;20651;-73
2022/09/10 02:14:20;;;;;;;6.93;4.57;;;9.70;99.90;;;;;;5114917;28;20203;-72
2022/09/10 02:16:52;;;;;;;5.93;4.23;;;9.70;99.90;;;;;;5114523;28;20191;-71
2022/09/10 02:19:19;;;;;;;6.63;4.40;;;9.70;99.90;;;;;;5125197;27;20199;-74
2022/09/10 02:21:46;;;;;;;6.13;4.23;;;9.70;99.90;;;;;;5135690;27;20294;-72
2022/09/10 02:24:13;;;;;;;6.00;4.23;;;9.70;99.90;;;;;;5134994;27;20209;-73
2022/09/10 02:26:42;;;;;;;5.87;4.40;;;9.70;99.90;;;;;;5119620;27;20255;-72
2022/09/10 02:29:12;;;;;;;7.77;5.00;;;9.70;99.90;;;;;;5114663;28;20290;-70
2022/09/10 02:31:40;;;;;;;6.63;4.63;;;9.70;99.90;;;;;;5114565;28;20203;-69
2022/09/10 02:34:08;;;;;;;7.63;4.43;;;9.70;99.90;;;;;;5114597;28;20633;-69
2022/09/10 02:36:34;;;;;;;6.80;4.43;;;9.70;99.90;;;;;;5118931;27;20563;-70
2022/09/10 02:39:03;;;;;;;5.03;4.07;;;9.70;99.90;;;;;;5135132;27;20779;-70
2022/09/10 02:41:33;;;;;;;5.93;4.77;;;9.70;99.90;;;;;;5134983;27;20633;-68
2022/09/10 02:44:00;;;;;;;6.33;4.27;;;9.80;99.90;;;;;;5134639;27;20229;-70
2022/09/10 02:46:27;;;;;;;5.93;4.40;;;9.80;99.90;;;;;;5121863;27;20314;-69
2022/09/10 02:48:55;;;;;;;7.47;4.47;;;9.80;99.90;;;;;;5113456;27;20294;-71
2022/09/10 02:51:22;;;;;;;6.23;4.30;;;9.80;99.90;;;;;;5117266;27;20203;-72
2022/09/10 02:53:49;;;;;;;6.10;4.20;;;9.80;99.90;;;;;;5130007;27;20650;-72
2022/09/10 02:56:18;;;;;;;4.63;3.80;;;9.80;99.90;;;;;;5120891;27;20294;-70
2022/09/10 02:58:45;;;;;;;5.37;4.00;;;9.80;99.90;;;;;;5130257;27;20231;-70
2022/09/10 03:01:14;;;;;;;6.33;4.70;;;9.80;99.90;;;;;;5113663;28;20290;-73
2022/09/10 03:03:42;;;;;;;5.83;4.40;;;9.90;99.90;;;;;;5113783;28;20563;-71
2022/09/10 03:06:10;;;;;;;5.60;3.70;;;9.90;99.90;;;;;;5114058;27;20753;-71
2022/09/10 03:08:37;;;;;;;6.07;4.00;;;9.90;99.90;;;;;;5112722;27;20702;-71
2022/09/10 03:11:06;;;;;;;4.30;3.73;;;9.90;99.90;;;;;;5113998;28;20291;-71
2022/09/10 03:13:33;;;;;;;5.50;3.97;;;9.90;99.90;;;;;;5113515;28;20571;-72
2022/09/10 03:16:01;;;;;;;4.67;3.77;;;9.90;99.90;;;;;;5113769;28;20562;-70
2022/09/10 03:18:29;;;;;;;5.70;3.73;;;9.90;99.90;;;;;;5114094;27;20551;-70
2022/09/10 03:21:08;;;;;;;5.07;3.70;;;9.90;99.90;;;;;;5116739;27;20268;-71
2022/09/10 03:23:36;;;;;;;5.67;4.10;;;9.90;99.90;;;;;;5113436;27;20567;-71
2022/09/10 03:26:04;;;;;;;6.27;4.10;;;10.00;99.90;;;;;;5113109;28;20227;-71
2022/09/10 03:28:31;;;;;;;5.20;4.10;;;10.00;99.90;;;;;;5114332;27;20613;-72
2022/09/10 03:30:58;;;;;;;5.93;4.50;;;10.00;99.90;;;;;;5136402;27;20202;-71
2022/09/10 03:33:25;;;;;;;5.63;4.07;;;10.00;99.90;;;;;;5133812;27;20294;-72
2022/09/10 03:35:54;;;;;;;5.80;4.27;;;10.00;99.90;;;;;;5134137;27;20234;-72
2022/09/10 03:38:21;;;;;;;5.93;3.90;;;10.10;99.90;;;;;;5133784;27;20198;-75
2022/09/10 03:40:49;;;;;;;5.20;3.70;;;10.10;99.90;;;;;;5113070;27;20241;-73
2022/09/10 03:43:16;;;;;;;5.43;4.00;;;10.10;99.90;;;;;;5113632;28;20234;-72
2022/09/10 03:45:43;;;;;;;4.77;3.93;;;10.10;99.90;;;;;;5112580;28;20322;-74
2022/09/10 03:48:10;;;;;;;5.33;3.70;;;10.10;99.90;;;;;;5120132;27;20569;-74
2022/09/10 03:50:38;;;;;;;4.03;3.53;;;10.10;99.90;;;;;;5133216;27;20297;-73
2022/09/10 03:53:05;;;;;;;4.97;3.80;;;10.10;99.90;;;;;;5134799;27;20198;-72
2022/09/10 03:55:31;;;;;;;6.47;4.10;;;10.20;99.90;;;;;;5132946;27;20297;-72
2022/09/10 03:58:00;;;;;;;4.87;3.90;;;10.20;99.90;;;;;;5124575;27;20230;-71
2022/09/10 04:00:27;;;;;;;5.30;4.23;;;10.20;99.90;;;;;;5133274;27;20561;-72
2022/09/10 04:02:53;;;;;;;4.33;3.77;;;10.20;99.90;;;;;;5133545;27;20230;-72
2022/09/10 04:05:21;;;;;;;5.03;3.87;;;10.20;99.90;;;;;;5131887;27;20762;-71
2022/09/10 04:07:47;;;;;;;5.83;4.07;;;10.20;99.90;;;;;;5133196;27;20210;-71
2022/09/10 04:10:14;;;;;;;5.37;4.40;;;10.20;99.90;;;;;;5132869;27;20249;-72
2022/09/10 04:12:42;;;;;;;4.87;3.90;;;10.30;99.90;;;;;;5133115;27;20245;-71
2022/09/10 04:15:12;;;;;;;6.07;4.00;;;10.30;99.90;;;;;;5131731;27;20198;-71
2022/09/10 04:17:39;;;;;;;5.30;4.10;;;10.30;99.90;;;;;;5133162;27;20646;-71
2022/09/10 04:20:06;;;;;;;5.90;4.17;;;10.30;99.90;;;;;;5132952;27;20293;-72
2022/09/10 04:22:33;;;;;;;6.70;4.50;;;10.30;99.90;;;;;;5132789;27;20195;-73
2022/09/10 04:25:00;;;;;;;4.87;4.20;;;10.20;99.90;;;;;;5132498;27;20203;-70
2022/09/10 04:27:27;;;;;;;4.40;3.93;;;10.30;99.90;;;;;;5132803;27;20604;-71
2022/09/10 04:29:54;;;;;;;6.77;4.37;;;10.30;99.90;;;;;;5133037;27;20631;-69
2022/09/10 04:32:22;;;;;;;6.83;5.50;;;10.30;99.90;;;;;;5112368;27;20290;-70
2022/09/10 04:34:50;;;;;;;5.10;4.03;;;10.30;99.90;;;;;;5125996;27;20234;-70
2022/09/10 04:37:17;;;;;;;4.63;3.63;;;10.30;99.90;;;;;;5132577;27;20202;-71
2022/09/10 04:39:44;;;;;;;5.87;4.03;;;10.30;99.90;;;;;;5133215;27;20322;-70
2022/09/10 04:42:13;;;;;;;4.63;3.47;;;10.30;99.90;;;;;;5132910;27;20590;-71
2022/09/10 04:44:40;;;;;;;4.50;3.50;;;10.40;99.90;;;;;;5130442;27;20817;-71
2022/09/10 04:47:07;;;;;;;4.57;4.00;;;10.40;99.90;;;;;;5111916;27;20330;-69
2022/09/10 04:49:35;;;;;;;4.67;3.97;;;10.40;99.90;;;;;;5112217;27;20203;-72
2022/09/10 04:52:02;;;;;;;4.13;3.47;;;10.40;99.90;;;;;;5113104;28;20294;-70
2022/09/10 04:54:29;;;;;;;5.17;3.93;;;10.40;99.90;;;;;;5112158;27;20306;-73
2022/09/10 04:56:56;;;;;;;4.27;3.43;;;10.40;99.90;;;;;;5112179;27;20636;-70
2022/09/10 04:59:23;;;;;;;4.70;3.60;;;10.40;99.90;;;;;;5111541;28;20291;-70
2022/09/10 05:01:50;;;;;;;4.87;3.90;;;10.40;99.90;;;;;;5112163;28;20371;-71
2022/09/10 05:04:17;;;;;;;4.40;3.40;;;10.40;99.90;;;;;;5113909;27;20571;-70
2022/09/10 05:06:48;;;;;;;3.70;3.30;;;10.40;99.90;;;;;;5112145;27;20310;-70
2022/09/10 05:09:15;;;;;;;4.00;3.47;;;10.40;99.90;;;;;;5129916;27;20241;-71
2022/09/10 05:11:42;;;;;;;4.83;3.37;;;10.40;99.90;;;;;;5132740;28;20340;-71
2022/09/10 05:14:09;;;;;;;5.00;3.57;;;10.40;99.90;;;;;;5132597;28;20230;-72
2022/09/10 05:16:37;;;;;;;4.60;3.63;;;10.40;99.90;;;;;;5130977;27;20293;-71
2022/09/10 05:19:05;;;;;;;3.90;3.43;;;10.40;99.90;;;;;;5132431;28;20206;-71
2022/09/10 05:21:32;;;;;;;3.80;3.40;;;10.40;99.90;;;;;;5131760;27;20297;-72
2022/09/10 05:24:00;;;;;;;4.40;3.50;;;10.40;99.90;;;;;;5132253;28;20297;-71
2022/09/10 05:26:27;;;;;;;4.07;3.60;;;10.40;99.90;;;;;;5131382;27;20238;-69
2022/09/10 05:28:54;;;;;;;4.10;3.70;;;10.40;99.90;;;;;;5132399;28;20248;-69
2022/09/10 05:31:21;;;;;;;4.03;3.63;;;10.40;99.90;;;;;;5132899;27;20611;-70
2022/09/10 05:33:48;;;;;;;4.73;3.60;;;10.30;99.90;;;;;;5137587;27;20293;-69
2022/09/10 05:36:15;;;;;;;4.60;3.50;;;10.30;99.90;;;;;;5136048;27;20191;-74
2022/09/10 05:38:41;;;;;;;4.57;4.00;;;10.30;99.90;;;;;;5128179;27;20227;-69
2022/09/10 05:41:10;;;;;;;5.33;3.90;;;10.30;99.90;;;;;;5116964;27;20290;-70
2022/09/10 05:43:37;;;;;;;4.27;3.87;;;10.30;99.90;;;;;;5135494;27;20238;-69
2022/09/10 05:46:05;;;;;;;4.97;3.80;;;10.30;99.90;;;;;;5135136;27;20322;-69
2022/09/10 05:48:32;;;;;;;4.67;3.70;;;10.30;99.90;;;;;;5127103;27;20215;-68
2022/09/10 05:50:58;;;;;;;4.70;4.00;;;10.30;99.90;;;;;;5115778;28;20683;-68
2022/09/10 05:53:25;;;;;;;4.27;3.67;;;10.30;99.90;;;;;;5114809;28;20291;-69
2022/09/10 05:55:52;;;;;;;5.30;3.93;;;10.30;99.90;;;;;;5120802;27;20199;-69
2022/09/10 05:58:20;;;;;;;4.93;4.07;;;10.30;99.90;;;;;;5143753;27;20230;-68
2022/09/10 06:00:50;;;;;;;4.20;3.80;;;10.30;99.90;;;;;;5140239;27;20285;-69
2022/09/10 06:03:18;;;;;;;4.90;4.30;;;10.30;99.90;;;;;;5130139;27;20229;-69
2022/09/10 06:05:50;;;;;;;4.70;4.20;;;10.30;99.90;;;;;;5114715;27;20252;-72
2022/09/10 06:08:17;;;;;;;4.03;3.63;;;10.40;99.90;;;;;;5120197;27;20291;-70
2022/09/10 06:10:53;;;;;;;5.57;4.20;;;10.30;99.90;;;;;;5115081;28;20299;-71
2022/09/10 06:13:21;;;;;;;5.50;4.27;;;10.40;99.90;;;;;;5118771;27;20258;-70
2022/09/10 06:15:48;;;;;;;4.63;3.80;;;10.40;99.90;;;;;;5131559;27;20250;-71
2022/09/10 06:18:15;;;;;;;4.33;3.77;;;10.30;99.90;;;;;;5135475;27;20322;-70
2022/09/10 06:20:42;;;;;;;4.80;4.30;;;10.30;99.90;;;;;;5135232;27;20213;-70
2022/09/10 06:23:09;;;;;;;5.20;4.27;;;10.30;99.90;;;;;;5135365;27;20301;-70
2022/09/10 06:25:36;;;;;;;4.40;3.67;;;10.30;99.90;;;;;;5135292;27;20634;-70
2022/09/10 06:28:03;;;;;;;4.00;3.53;;;10.30;99.90;;;;;;5128480;27;20234;-71
2022/09/10 06:30:31;;;;;;;4.80;3.93;;;10.20;99.90;;;;;;5118933;27;20203;-71
2022/09/10 06:32:58;;;;;;;5.70;4.00;;;10.20;99.90;;;;;;5123121;27;20285;-71
2022/09/10 06:35:25;;;;;;;5.83;4.20;;;10.20;99.90;;;;;;5132930;27;20290;-70
2022/09/10 06:37:53;;;;;;;4.13;3.70;;;10.10;99.90;;;;;;5135306;27;20221;-71
2022/09/10 06:40:20;;;;;;;4.73;4.00;;;10.10;99.90;;;;;;5135291;27;20360;-70
2022/09/10 06:42:47;;;;;;;4.90;4.30;;;10.10;99.90;;;;;;5135504;27;20207;-70
2022/09/10 06:45:14;;;;;;;5.97;4.90;;;10.10;99.90;;;;;;5120035;27;20231;-72
2022/09/10 06:47:42;;;;;;;4.87;4.33;;;10.00;99.90;;;;;;5114725;28;20778;-71
2022/09/10 06:50:09;;;;;;;6.00;4.90;;;10.00;99.90;;;;;;5114346;28;20227;-72
2022/09/10 06:52:36;;;;;;;6.65;5.95;;;10.00;99.90;;;;;;5113993;28;20511;-70
2022/09/10 06:55:04;;;;;;;5.70;5.10;;;10.00;99.90;;;;;;5113974;28;20639;-71
2022/09/10 06:57:31;;;;;;;5.90;5.23;;;10.00;99.90;;;;;;5133657;27;20562;-73
2022/09/10 06:59:58;;;;;;;6.00;5.40;;;10.00;99.90;;;;;;5134221;27;20248;-71
2022/09/10 07:02:25;;;;;;;5.70;5.07;;;10.00;99.90;;;;;;5129879;27;20647;-71
2022/09/10 07:04:53;;;;;;;5.83;4.90;;;10.00;99.90;;;;;;5134564;27;20702;-72
2022/09/10 07:07:20;;;;;;;5.70;5.10;;;10.00;99.90;;;;;;5134290;27;20329;-72
2022/09/10 07:09:47;;;;;;;6.27;5.67;;;10.00;99.90;;;;;;5134722;27;20203;-70
2022/09/10 07:12:15;;;;;;;6.80;5.73;;;10.00;99.90;;;;;;5132936;27;20302;-69
2022/09/10 07:14:42;;;;;;;6.60;5.90;;;10.00;99.90;;;;;;5134125;27;20245;-70
2022/09/10 07:17:08;;;;;;;7.03;5.57;;;10.00;99.90;;;;;;5134260;27;20286;-71
2022/09/10 07:19:36;;;;;;;5.97;5.37;;;10.00;99.90;;;;;;5121069;27;20298;-70
2022/09/10 07:22:04;;;;;;;7.43;6.47;;;10.10;99.90;;;;;;5133763;27;20283;-71
2022/09/10 07:24:31;;;;;;;12.23;9.03;;;10.00;99.90;;;;;;5133962;27;20195;-72
2022/09/10 07:26:58;;;;;;;7.77;6.93;;;10.00;99.90;;;;;;5134181;27;20222;-71
2022/09/10 07:29:29;;;;;;;7.70;6.87;;;10.00;99.90;;;;;;5134069;27;20207;-71
2022/09/10 07:31:56;;;;;;;7.47;6.67;;;10.00;99.90;;;;;;5131533;27;20210;-70
2022/09/10 07:34:23;;;;;;;7.03;6.17;;;10.00;99.90;;;;;;5134234;27;20293;-70
2022/09/10 07:36:50;;;;;;;10.67;7.13;;;10.00;99.90;;;;;;5133381;27;20613;-72
2022/09/10 07:39:18;;;;;;;9.03;7.07;;;10.00;99.90;;;;;;5133461;27;20199;-72
2022/09/10 07:41:45;;;;;;;7.33;6.63;;;10.00;99.90;;;;;;5121503;27;20635;-71
2022/09/10 07:44:12;;;;;;;9.83;7.40;;;10.00;99.90;;;;;;5113078;28;20235;-73
2022/09/10 07:46:39;;;;;;;10.93;7.80;;;10.00;99.90;;;;;;5113470;28;20648;-70
2022/09/10 07:49:06;;;;;;;8.87;7.20;;;10.00;99.90;;;;;;5113488;28;20624;-70
2022/09/10 07:51:34;;;;;;;7.30;6.60;;;10.00;99.90;;;;;;5133511;27;20221;-72
2022/09/10 07:54:01;;;;;;;8.27;7.40;;;10.00;99.90;;;;;;5129425;27;20290;-70
2022/09/10 07:56:30;;;;;;;8.03;7.23;;;9.90;99.90;;;;;;5135764;27;20293;-71
2022/09/10 07:58:57;;;;;;;9.60;7.30;;;9.90;99.90;;;;;;5135713;27;20329;-72
2022/09/10 08:01:24;;;;;;;8.70;7.23;;;9.90;99.90;;;;;;5131511;27;20262;-72
2022/09/10 08:03:55;;;;;;;8.17;7.33;;;9.90;99.90;;;;;;5137371;27;20233;-70
2022/09/10 08:06:22;;;;;;;8.53;7.40;;;9.90;99.90;;;;;;5133941;27;20313;-71
2022/09/10 08:08:50;;;;;;;7.90;6.90;;;9.90;99.90;;;;;;5132671;27;20207;-71
2022/09/10 08:11:18;;;;;;;9.50;7.83;;;9.90;99.90;;;;;;5133584;27;20202;-72
2022/09/10 08:13:50;;;;;;;8.17;7.37;;;9.90;99.90;;;;;;5133696;27;20286;-71
2022/09/10 08:16:19;;;;;;;13.73;11.07;;;9.90;99.90;;;;;;5132353;27;20202;-71
2022/09/10 08:18:47;;;;;;;12.90;10.73;;;9.90;99.90;;;;;;5133220;27;20757;-71
2022/09/10 08:21:15;;;;;;;11.37;9.70;;;9.90;99.90;;;;;;5124991;27;20206;-69
2022/09/10 08:23:43;;;;;;;10.80;8.63;;;10.00;99.90;;;;;;5120271;27;20719;-72
2022/09/10 08:26:10;;;;;;;9.27;8.20;;;10.00;99.90;;;;;;5131052;27;20206;-71
2022/09/10 08:28:37;;;;;;;11.07;9.60;;;9.90;99.90;;;;;;5132986;27;20657;-72
2022/09/10 08:31:07;;;;;;;13.80;11.77;;;9.90;99.90;;;;;;5131316;27;20308;-70
2022/09/10 08:33:34;;;;;;;10.60;9.20;;;9.90;99.90;;;;;;5117369;27;20225;-68
2022/09/10 08:36:03;;;;;;;10.80;8.80;;;9.90;99.90;;;;;;5112640;28;20214;-70
2022/09/10 08:38:32;;;;;;;10.80;8.73;;;9.90;99.90;;;;;;5118679;27;20211;-74
2022/09/10 08:41:00;;;;;;;10.23;8.93;;;10.00;99.90;;;;;;5134330;27;20717;-72
2022/09/10 08:43:35;;;;;;;11.37;9.47;;;9.90;99.90;;;;;;5132697;27;20210;-73
2022/09/10 08:46:10;;;;;;;10.37;8.90;;;9.90;99.90;;;;;;5132640;27;20279;-71
2022/09/10 08:48:39;;;;;;;9.90;8.37;;;9.90;99.90;;;;;;5133159;27;20296;-72
2022/09/10 08:51:14;;;;;;;15.10;11.23;;;9.90;99.90;;;;;;5133803;28;20209;-72
2022/09/10 08:53:46;;;;;;;11.37;9.40;;;9.90;99.90;;;;;;5133254;27;20305;-71
2022/09/10 08:56:16;;;;;;;12.73;9.80;;;10.00;99.90;;;;;;5133157;28;20202;-72
2022/09/10 08:58:49;;;;;;;13.00;10.37;;;10.00;99.90;;;;;;5132777;28;20617;-71
2022/09/10 09:01:26;;;;;;;12.83;10.90;;;10.00;99.90;;;;;;5131390;27;20744;-69
2022/09/10 09:03:57;;;;;;;12.77;10.07;;;10.00;99.90;;;;;;5111912;28;20187;-71
2022/09/10 09:06:30;;;;;;;12.80;10.67;;;10.10;99.90;;;;;;5130415;27;20194;-71
2022/09/10 09:08:59;;;;;;;14.20;10.70;;;10.00;99.90;;;;;;5135119;27;20202;-72
2022/09/10 09:11:33;;;;;;;14.40;10.87;;;10.00;99.90;;;;;;5135330;27;20291;-71
2022/09/10 09:14:16;;;;;;;13.27;10.73;;;10.00;99.90;;;;;;5132657;27;20201;-71
2022/09/10 09:17:01;;;;;;;14.20;11.67;;;10.00;99.90;;;;;;5134099;27;20290;-70
2022/09/10 09:19:33;;;;;;;15.83;11.03;;;10.00;99.90;;;;;;5134198;27;20221;-71
2022/09/10 09:22:07;;;;;;;14.77;11.87;;;10.00;99.90;;;;;;5134460;27;20190;-71
2022/09/10 09:24:47;;;;;;;15.97;13.03;;;10.00;99.90;;;;;;5133599;27;20200;-71
2022/09/10 09:27:17;;;;;;;16.13;12.53;;;10.00;99.90;;;;;;5133153;27;20210;-71
2022/09/10 09:29:49;;;;;;;20.40;15.90;;;10.00;99.90;;;;;;5133810;27;20331;-71
2022/09/10 09:32:20;;;;;;;17.20;12.33;;;10.00;99.90;;;;;;5133732;27;20187;-73
2022/09/10 09:34:52;;;;;;;15.63;11.60;;;10.00;99.90;;;;;;5131341;27;20728;-72
2022/09/10 09:37:21;;;;;;;14.27;11.17;;;10.00;99.90;;;;;;5133989;27;20266;-71
2022/09/10 09:40:03;;;;;;;16.53;11.93;;;10.00;99.90;;;;;;5133537;27;20194;-72
2022/09/10 09:42:39;;;;;;;15.60;12.90;;;9.90;99.90;;;;;;5132322;27;20197;-71
2022/09/10 09:45:16;;;;;;;17.00;12.23;;;10.00;99.90;;;;;;5133119;27;20325;-72
2022/09/10 09:47:48;;;;;;;18.63;13.27;;;9.90;99.90;;;;;;5133929;27;20202;-73
2022/09/10 09:50:17;;;;;;;19.33;13.33;;;9.90;99.90;;;;;;5132982;27;20199;-70
2022/09/10 09:52:45;;;;;;;15.50;12.00;;;9.90;99.90;;;;;;5133155;27;20209;-71
2022/09/10 09:55:21;;;;;;;19.40;11.57;;;9.90;99.90;;;;;;5132194;27;20294;-71
2022/09/10 09:57:47;;;;;;;18.13;12.60;;;9.90;99.90;;;;;;5132043;27;20193;-72
2022/09/10 10:00:34;;;;;;;15.27;11.90;;;9.90;99.90;;;;;;5132297;27;20203;-71
2022/09/10 10:03:13;;;;;;;15.10;10.70;;;9.90;99.90;;;;;;5131030;27;20226;-71
2022/09/10 10:05:41;;;;;;;12.07;10.57;;;9.90;99.90;;;;;;5133456;27;20273;-71
2022/09/10 10:08:28;;;;;;;13.60;10.43;;;9.90;99.90;;;;;;5133542;27;20219;-69
2022/09/10 10:10:56;;;;;;;12.73;10.27;;;9.90;99.90;;;;;;5132779;27;20227;-70
2022/09/10 10:13:23;;;;;;;14.70;11.07;;;10.00;99.90;;;;;;5131621;27;20191;-71
2022/09/10 10:15:51;;;;;;;13.90;11.47;;;10.00;99.90;;;;;;5133853;27;20201;-70
2022/09/10 10:18:34;;;;;;;13.03;10.60;;;10.00;99.90;;;;;;5133268;27;20191;-71
2022/09/10 10:21:18;;;;;;;15.33;11.40;;;10.00;99.90;;;;;;5129791;27;20220;-71
2022/09/10 10:23:46;;;;;;;14.57;11.20;;;10.00;99.90;;;;;;5131905;27;20697;-73
2022/09/10 10:26:24;;;;;;;11.00;9.77;;;10.10;99.90;;;;;;5133306;27;20305;-70
2022/09/10 10:28:54;;;;;;;15.97;10.30;;;10.10;99.90;;;;;;5132767;27;20203;-70
2022/09/10 10:31:22;;;;;;;12.77;10.10;;;10.10;99.90;;;;;;5131156;27;20198;-70
2022/09/10 10:33:59;;;;;;;12.87;9.83;;;10.20;99.90;;;;;;5133782;27;20319;-71
2022/09/10 10:36:31;;;;;;;10.43;8.97;;;10.20;99.90;;;;;;5131474;27;20277;-70
2022/09/10 10:39:03;;;;;;;12.43;9.70;;;10.20;99.90;;;;;;5133864;27;20648;-70
2022/09/10 10:41:51;;;;;;;12.83;10.07;;;10.20;99.90;;;;;;5130807;27;20215;-70
2022/09/10 10:44:46;;;;;;;9.37;8.13;;;10.20;99.90;;;;;;5133146;27;20620;-71
2022/09/10 10:47:33;;;;;;;9.83;8.47;;;10.20;99.90;;;;;;5132663;27;20214;-71
2022/09/10 10:50:11;;;;;;;9.40;7.47;;;10.30;99.90;;;;;;5133553;27;20650;-71
2022/09/10 10:52:47;;;;;;;9.03;7.67;;;10.30;99.90;;;;;;5133358;27;20621;-70
2022/09/10 10:55:22;;;;;;;9.73;8.23;;;10.30;99.90;;;;;;5133342;27;20285;-70
2022/09/10 10:58:09;;;;;;;10.93;8.13;;;10.40;99.90;;;;;;5131966;27;20195;-70
2022/09/10 11:00:40;;;;;;;10.23;8.13;;;10.40;99.90;;;;;;5131521;27;20840;-71
2022/09/10 11:03:15;;;;;;;10.83;8.60;;;10.40;99.90;;;;;;5131303;27;20192;-69
2022/09/10 11:05:46;;;;;;;12.33;9.83;;;10.30;99.90;;;;;;5130060;27;20183;-73
2022/09/10 11:08:18;;;;;;;13.90;10.20;;;10.30;99.90;;;;;;5134638;27;20670;-73
2022/09/10 11:10:49;;;;;;;13.40;10.17;;;10.30;99.90;;;;;;5130698;27;20229;-72
2022/09/10 11:13:21;;;;;;;16.00;12.33;;;10.30;99.90;;;;;;5132530;27;20615;-71
2022/09/10 11:15:58;;;;;;;16.67;12.87;;;10.30;99.90;;;;;;5131323;27;20198;-71
2022/09/10 11:18:32;;;;;;;16.37;12.97;;;10.30;99.90;;;;;;5130475;27;20190;-72
2022/09/10 11:21:05;;;;;;;18.60;13.60;;;10.30;99.90;;;;;;5129645;27;20198;-71
2022/09/10 11:23:38;;;;;;;18.83;14.03;;;10.30;99.90;;;;;;5129929;27;20787;-70
2022/09/10 11:26:13;;;;;;;20.70;14.97;;;10.30;99.90;;;;;;5130540;27;20298;-70
2022/09/10 11:28:45;;;;;;;19.80;14.80;;;10.30;99.90;;;;;;5132029;27;20804;-70
2022/09/10 11:31:19;;;;;;;19.20;14.47;;;10.30;99.90;;;;;;5132258;27;20622;-70
2022/09/10 11:33:57;;;;;;;23.20;16.13;;;10.30;99.90;;;;;;5132267;27;20758;-71
2022/09/10 11:36:33;;;;;;;21.57;16.23;;;10.40;99.90;;;;;;5133477;27;20232;-70
2022/09/10 11:39:08;;;;;;;22.20;16.60;;;10.40;99.90;;;;;;5134149;27;20684;-69
2022/09/10 11:41:41;;;;;;;23.97;16.97;;;10.40;99.90;;;;;;5131301;27;20190;-71
2022/09/10 11:44:33;;;;;;;22.30;17.07;;;10.30;99.90;;;;;;5131782;27;20317;-71
2022/09/10 11:47:04;;;;;;;29.63;19.17;;;10.40;99.90;;;;;;5130091;27;20194;-70
2022/09/10 11:49:41;;;;;;;26.53;17.87;;;10.40;99.90;;;;;;5132185;27;20614;-71
2022/09/10 11:52:10;;;;;;;35.07;21.70;;;10.40;99.90;;;;;;5132416;27;20301;-71
2022/09/10 11:54:38;;;;;;;35.73;22.40;;;10.40;99.90;;;;;;5130925;27;20206;-70
2022/09/10 11:57:10;;;;;;;33.80;22.30;;;10.40;99.90;;;;;;5131981;27;20210;-70
2022/09/10 11:59:53;;;;;;;33.23;21.57;;;10.50;99.90;;;;;;5129774;27;20215;-70
2022/09/10 12:02:50;;;;;;;30.93;20.80;;;10.40;99.90;;;;;;5129842;27;20201;-70
2022/09/10 12:05:24;;;;;;;28.23;21.10;;;10.50;99.90;;;;;;5094763;27;20289;-72
2022/09/10 12:08:00;;;;;;;28.20;19.80;;;10.50;99.90;;;;;;5132041;27;20213;-70
2022/09/10 12:10:33;;;;;;;29.20;19.80;;;10.50;99.90;;;;;;5127650;27;20252;-72
2022/09/10 12:13:00;;;;;;;28.90;18.47;;;10.60;99.90;;;;;;5125016;27;20294;-71
2022/09/10 12:15:32;;;;;;;25.37;18.27;;;10.60;99.90;;;;;;5133703;27;20297;-71
2022/09/10 12:18:05;;;;;;;28.37;18.57;;;10.60;99.90;;;;;;5131486;27;20210;-72
2022/09/10 12:20:35;;;;;;;27.83;19.13;;;10.60;99.90;;;;;;5131637;27;20190;-71
2022/09/10 12:23:05;;;;;;;27.53;20.07;;;10.60;99.90;;;;;;5131577;27;20194;-70
2022/09/10 12:25:33;;;;;;;31.97;21.37;;;10.70;99.90;;;;;;5131927;27;20222;-72
2022/09/10 12:28:02;;;;;;;37.80;24.53;;;10.70;99.90;;;;;;5131658;27;20321;-73
2022/09/10 12:31:01;;;;;;;37.37;24.10;;;10.70;99.90;;;;;;5132236;27;20237;-72
2022/09/10 12:34:13;;;;;;;32.57;22.37;;;10.70;99.90;;;;;;5131086;27;20277;-73
2022/09/10 12:37:26;;;;;;;33.53;23.60;;;10.70;99.90;;;;;;5125881;27;20290;-73
2022/09/10 12:40:30;;;;;;;35.83;22.27;;;10.70;99.90;;;;;;5128521;27;20643;-73
2022/09/10 12:43:19;;;;;;;32.67;22.87;;;10.70;99.90;;;;;;5112443;28;20664;-73
2022/09/10 12:46:03;;;;;;;34.10;22.13;;;10.80;99.90;;;;;;5129603;28;20301;-72
2022/09/10 12:48:33;;;;;;;30.30;21.70;;;10.80;99.90;;;;;;5132953;27;20337;-72
2022/09/10 12:51:07;;;;;;;30.47;21.20;;;10.80;99.90;;;;;;5131452;28;20239;-72
2022/09/10 12:54:08;;;;;;;31.20;21.17;;;10.80;99.90;;;;;;5126017;28;20208;-72
2022/09/10 12:56:52;;;;;;;32.87;22.37;;;10.80;99.90;;;;;;5125208;28;20194;-71
2022/09/10 12:59:46;;;;;;;38.17;23.23;;;10.80;99.90;;;;;;5129561;28;20548;-72
2022/09/10 13:02:21;;;;;;;38.70;23.53;;;10.80;99.90;;;;;;5121958;27;20650;-70
2022/09/10 13:04:57;;;;;;;32.43;21.93;;;10.80;99.90;;;;;;5127062;27;20197;-71
2022/09/10 13:07:27;;;;;;;35.20;22.83;;;10.90;99.90;;;;;;5128964;27;20198;-71